Time;durP1;ratioP1;P1;durP2;ratioP2;P2;SDS_P1;SDS_P2;PMS_P1;PMS_P2;Temp;Humidity;BMP_temperature;BMP_pressure;BME280_temperature;BME280_humidity;BME280_pressure;Samples;Min_cycle;Max_cycle;Signal;HPM_P1;HPM_P2
2020/12/16 00:02:25;;;;;;;13.55;9.38;;;6.30;99.90;;;;;;5095612;28;20032;-79
2020/12/16 00:04:51;;;;;;;16.55;10.02;;;6.20;99.90;;;;;;5077372;28;20505;-79
2020/12/16 00:07:17;;;;;;;17.13;11.25;;;6.10;99.90;;;;;;5077324;28;20479;-78
2020/12/16 00:09:43;;;;;;;10.98;8.00;;;6.10;99.90;;;;;;5077268;28;20016;-79
2020/12/16 00:12:09;;;;;;;11.10;7.82;;;6.10;99.90;;;;;;5095694;28;20133;-79
2020/12/16 00:14:34;;;;;;;10.63;8.40;;;6.00;99.90;;;;;;5077269;28;20038;-79
2020/12/16 00:17:00;;;;;;;12.75;9.65;;;6.10;99.90;;;;;;5095050;28;20111;-79
2020/12/16 00:19:26;;;;;;;10.32;7.90;;;6.00;99.90;;;;;;5077243;28;20475;-79
2020/12/16 00:21:52;;;;;;;13.15;9.07;;;6.10;99.90;;;;;;5095232;28;20027;-79
2020/12/16 00:24:18;;;;;;;11.38;8.45;;;6.10;99.90;;;;;;5077088;28;20024;-78
2020/12/16 00:26:44;;;;;;;11.45;8.52;;;6.00;99.90;;;;;;5076895;28;20028;-78
2020/12/16 00:29:13;;;;;;;13.63;9.60;;;6.10;99.90;;;;;;5095110;28;20031;-79
2020/12/16 00:31:39;;;;;;;14.38;10.20;;;6.00;99.90;;;;;;5076841;28;20178;-78
2020/12/16 00:34:06;;;;;;;10.15;7.40;;;6.10;99.90;;;;;;5076809;28;20107;-79
2020/12/16 00:36:39;;;;;;;12.57;8.57;;;6.10;99.90;;;;;;5076579;28;20024;-79
2020/12/16 00:39:07;;;;;;;11.48;7.97;;;6.10;99.90;;;;;;5076315;28;20066;-78
2020/12/16 00:41:34;;;;;;;13.93;8.55;;;6.00;99.90;;;;;;5095130;28;20051;-78
2020/12/16 00:44:03;;;;;;;10.30;7.55;;;6.00;99.90;;;;;;5076692;28;20500;-79
2020/12/16 00:46:29;;;;;;;11.35;8.40;;;6.00;99.90;;;;;;5094682;28;20547;-79
2020/12/16 00:48:55;;;;;;;10.35;7.43;;;6.00;99.90;;;;;;5076546;28;20052;-78
2020/12/16 00:51:21;;;;;;;10.98;8.43;;;6.10;99.90;;;;;;5076475;28;20027;-79
2020/12/16 00:53:47;;;;;;;11.98;8.32;;;6.20;99.90;;;;;;5076532;28;20129;-79
2020/12/16 00:56:13;;;;;;;12.23;9.20;;;6.20;99.90;;;;;;5076345;28;20364;-79
2020/12/16 00:58:38;;;;;;;14.85;8.68;;;6.20;99.90;;;;;;5094518;28;20031;-78
2020/12/16 01:01:05;;;;;;;10.48;7.72;;;6.10;99.90;;;;;;5095046;28;20467;-79
2020/12/16 01:03:32;;;;;;;13.82;9.20;;;6.10;99.90;;;;;;5094394;28;20034;-78
2020/12/16 01:05:58;;;;;;;10.70;8.02;;;6.00;99.90;;;;;;5094357;28;20028;-79
2020/12/16 01:08:24;;;;;;;10.23;7.93;;;6.00;99.90;;;;;;5094392;28;20042;-79
2020/12/16 01:10:49;;;;;;;10.35;7.97;;;6.00;99.90;;;;;;5094318;28;20498;-78
2020/12/16 01:13:15;;;;;;;11.18;8.50;;;6.00;99.90;;;;;;5076129;28;20028;-79
2020/12/16 01:15:41;;;;;;;12.15;8.35;;;6.10;99.90;;;;;;5075967;28;20538;-79
2020/12/16 01:18:07;;;;;;;10.50;8.13;;;6.10;99.90;;;;;;5093948;28;20058;-79
2020/12/16 01:20:32;;;;;;;13.50;7.18;;;6.10;99.90;;;;;;5094413;28;20097;-79
2020/12/16 01:22:58;;;;;;;12.43;8.10;;;6.10;99.90;;;;;;5094097;28;20035;-79
2020/12/16 01:25:24;;;;;;;10.77;7.35;;;6.10;99.90;;;;;;5094069;28;20024;-79
2020/12/16 01:27:54;;;;;;;14.07;9.25;;;6.10;99.90;;;;;;5093959;28;20059;-79
2020/12/16 01:30:20;;;;;;;15.57;9.32;;;6.10;99.90;;;;;;5075847;28;20024;-79
2020/12/16 01:32:49;;;;;;;16.00;8.93;;;6.10;99.90;;;;;;5093949;28;20543;-79
2020/12/16 01:35:15;;;;;;;11.52;8.55;;;6.10;99.90;;;;;;5094188;28;20024;-79
2020/12/16 01:37:40;;;;;;;13.95;9.18;;;6.10;99.90;;;;;;5093907;28;20031;-78
2020/12/16 01:40:08;;;;;;;10.85;8.00;;;6.10;99.90;;;;;;5075785;28;20028;-79
2020/12/16 01:42:35;;;;;;;9.00;7.18;;;6.10;99.90;;;;;;5093870;28;20030;-79
2020/12/16 01:45:16;;;;;;;15.18;9.32;;;6.10;99.90;;;;;;5093803;28;20032;-79
2020/12/16 01:47:42;;;;;;;10.73;7.60;;;6.10;99.90;;;;;;5093694;28;20050;-79
2020/12/16 01:50:09;;;;;;;9.35;7.07;;;6.10;99.90;;;;;;5075535;28;20459;-79
2020/12/16 01:52:37;;;;;;;9.43;6.72;;;6.10;99.90;;;;;;5093731;28;20012;-79
2020/12/16 01:55:05;;;;;;;10.70;7.45;;;6.10;99.90;;;;;;5075602;28;20047;-78
2020/12/16 01:57:36;;;;;;;12.40;7.18;;;6.10;99.90;;;;;;5093658;28;20548;-79
2020/12/16 02:00:06;;;;;;;15.68;8.40;;;6.00;99.90;;;;;;5075488;28;20122;-79
2020/12/16 02:02:40;;;;;;;11.88;7.60;;;6.00;99.90;;;;;;5075545;28;20107;-79
2020/12/16 02:05:09;;;;;;;14.57;8.80;;;6.00;99.90;;;;;;5093957;28;20052;-79
2020/12/16 02:07:36;;;;;;;14.80;8.40;;;6.00;99.90;;;;;;5075376;28;20024;-79
2020/12/16 02:10:02;;;;;;;17.35;8.98;;;6.00;99.90;;;;;;5075431;28;20023;-79
2020/12/16 02:12:31;;;;;;;11.85;8.10;;;6.00;99.90;;;;;;5093822;28;20413;-79
2020/12/16 02:14:57;;;;;;;14.30;8.52;;;6.00;99.90;;;;;;5075371;28;20471;-79
2020/12/16 02:17:23;;;;;;;11.90;7.90;;;6.00;99.90;;;;;;5093250;28;20154;-79
2020/12/16 02:19:57;;;;;;;13.35;7.40;;;6.10;99.90;;;;;;5093758;28;20031;-78
2020/12/16 02:22:24;;;;;;;11.43;8.18;;;6.10;99.90;;;;;;5075325;28;20483;-79
2020/12/16 02:24:57;;;;;;;12.77;7.88;;;6.00;99.90;;;;;;5075290;28;20032;-79
2020/12/16 02:27:22;;;;;;;12.98;8.57;;;5.90;99.90;;;;;;5075181;28;20491;-79
2020/12/16 02:29:48;;;;;;;15.88;8.70;;;5.90;99.90;;;;;;5075220;28;20107;-79
2020/12/16 02:32:14;;;;;;;14.88;8.88;;;5.90;99.90;;;;;;5075298;28;20069;-78
2020/12/16 02:34:41;;;;;;;13.90;9.35;;;5.90;99.90;;;;;;5093337;28;20481;-79
2020/12/16 02:37:06;;;;;;;9.93;7.25;;;5.90;99.90;;;;;;5093576;28;20028;-79
2020/12/16 02:39:32;;;;;;;11.40;7.70;;;5.90;99.90;;;;;;5093241;28;20099;-78
2020/12/16 02:42:00;;;;;;;12.35;8.10;;;6.00;99.90;;;;;;5075167;28;20035;-78
2020/12/16 02:44:25;;;;;;;16.65;7.97;;;6.10;99.90;;;;;;5093165;28;20036;-79
2020/12/16 02:46:52;;;;;;;22.50;10.15;;;6.10;99.90;;;;;;5075164;28;20378;-79
2020/12/16 02:49:17;;;;;;;19.02;9.75;;;6.10;99.90;;;;;;5075077;28;20024;-79
2020/12/16 02:51:43;;;;;;;10.60;8.43;;;6.10;99.90;;;;;;5075070;28;20486;-79
2020/12/16 02:54:09;;;;;;;11.40;8.60;;;6.10;99.90;;;;;;5093120;28;20024;-79
2020/12/16 02:56:34;;;;;;;11.23;8.95;;;6.00;99.90;;;;;;5093137;28;20024;-79
2020/12/16 02:59:00;;;;;;;12.95;8.98;;;6.10;99.90;;;;;;5074989;28;20487;-78
2020/12/16 03:01:26;;;;;;;12.02;7.65;;;6.00;99.90;;;;;;5077096;28;20020;-79
2020/12/16 03:03:51;;;;;;;10.18;7.60;;;5.90;99.90;;;;;;5078594;28;20024;-79
2020/12/16 03:06:17;;;;;;;9.98;7.32;;;6.00;99.90;;;;;;5096634;28;20028;-79
2020/12/16 03:08:43;;;;;;;8.20;6.18;;;6.00;99.90;;;;;;5096686;28;20371;-79
2020/12/16 03:11:15;;;;;;;7.65;6.03;;;6.00;99.90;;;;;;5096630;28;20028;-78
2020/12/16 03:13:41;;;;;;;9.70;7.28;;;6.10;99.90;;;;;;5096603;28;20082;-79
2020/12/16 03:16:07;;;;;;;8.00;6.38;;;6.10;99.90;;;;;;5096464;28;20028;-79
2020/12/16 03:18:33;;;;;;;9.65;7.45;;;6.00;99.90;;;;;;5096288;28;20380;-79
2020/12/16 03:20:59;;;;;;;9.00;6.68;;;6.00;99.90;;;;;;5078288;28;20024;-78
2020/12/16 03:23:25;;;;;;;9.07;7.50;;;5.90;99.90;;;;;;5078254;28;20085;-79
2020/12/16 03:25:50;;;;;;;11.32;7.47;;;5.90;99.90;;;;;;5096251;28;20032;-79
2020/12/16 03:28:16;;;;;;;10.00;7.32;;;5.90;99.90;;;;;;5096282;28;20030;-79
2020/12/16 03:30:42;;;;;;;10.15;8.00;;;5.80;99.90;;;;;;5096235;28;20051;-79
2020/12/16 03:33:08;;;;;;;8.38;6.57;;;5.80;99.90;;;;;;5096372;28;20051;-79
2020/12/16 03:35:34;;;;;;;13.05;7.78;;;5.80;99.90;;;;;;5096140;28;20467;-79
2020/12/16 03:37:59;;;;;;;13.52;8.35;;;5.80;99.90;;;;;;5096353;28;20356;-79
2020/12/16 03:40:25;;;;;;;9.93;8.93;;;5.80;99.90;;;;;;5096048;28;20058;-79
2020/12/16 03:42:50;;;;;;;8.57;6.80;;;5.70;99.90;;;;;;5096249;28;20028;-79
2020/12/16 03:45:16;;;;;;;10.60;6.38;;;5.80;99.90;;;;;;5095982;28;20028;-79
2020/12/16 03:47:42;;;;;;;9.93;7.47;;;5.80;99.90;;;;;;5095860;28;20028;-79
2020/12/16 03:50:07;;;;;;;10.45;7.93;;;5.80;99.90;;;;;;5095826;28;20406;-79
2020/12/16 03:52:33;;;;;;;9.10;7.38;;;5.90;99.90;;;;;;5095824;28;20464;-79
2020/12/16 03:54:59;;;;;;;15.93;8.80;;;5.80;99.90;;;;;;5095783;28;20374;-79
2020/12/16 03:57:24;;;;;;;12.02;8.65;;;5.80;99.90;;;;;;5077555;28;20039;-79
2020/12/16 03:59:50;;;;;;;8.73;7.07;;;5.70;99.90;;;;;;5077563;28;20143;-79
2020/12/16 04:02:16;;;;;;;12.73;8.85;;;5.70;99.90;;;;;;5077524;28;20059;-79
2020/12/16 04:04:41;;;;;;;9.20;7.15;;;5.80;99.90;;;;;;5095565;28;20024;-79
2020/12/16 04:07:07;;;;;;;9.18;6.78;;;5.80;99.90;;;;;;5095476;28;20024;-79
2020/12/16 04:09:33;;;;;;;7.93;5.90;;;5.80;99.90;;;;;;5078183;28;20422;-79
2020/12/16 04:11:58;;;;;;;10.68;8.02;;;5.80;99.90;;;;;;5094593;28;20074;-78
2020/12/16 04:14:24;;;;;;;7.95;6.72;;;5.80;99.90;;;;;;5095817;28;20517;-79
2020/12/16 04:16:50;;;;;;;7.60;6.32;;;5.80;99.90;;;;;;5077160;28;20024;-78
2020/12/16 04:19:16;;;;;;;8.68;6.43;;;5.90;99.90;;;;;;5095145;28;20044;-79
2020/12/16 04:21:42;;;;;;;9.30;5.70;;;5.90;99.90;;;;;;5077087;28;20031;-79
2020/12/16 04:24:07;;;;;;;7.13;5.93;;;5.80;99.90;;;;;;5077119;28;20119;-79
2020/12/16 04:26:33;;;;;;;7.60;5.55;;;5.80;99.90;;;;;;5095350;28;20055;-78
2020/12/16 04:28:59;;;;;;;7.20;5.53;;;5.70;99.90;;;;;;5076940;28;20115;-79
2020/12/16 04:31:25;;;;;;;6.90;5.35;;;5.70;99.90;;;;;;5076939;28;20556;-79
2020/12/16 04:33:50;;;;;;;6.50;5.63;;;5.50;99.90;;;;;;5076799;28;20031;-79
2020/12/16 04:36:16;;;;;;;7.25;5.72;;;5.40;99.90;;;;;;5094961;28;20027;-79
2020/12/16 04:38:41;;;;;;;7.32;5.47;;;5.20;99.90;;;;;;5076815;28;20053;-78
2020/12/16 04:41:08;;;;;;;6.30;5.20;;;5.20;99.90;;;;;;5094938;28;20020;-78
2020/12/16 04:43:39;;;;;;;6.60;5.05;;;5.30;99.90;;;;;;5076659;28;20028;-78
2020/12/16 04:46:05;;;;;;;7.78;5.95;;;5.30;99.90;;;;;;5094972;28;20035;-78
2020/12/16 04:48:32;;;;;;;6.38;5.13;;;5.30;99.90;;;;;;5094727;28;20020;-79
2020/12/16 04:51:01;;;;;;;6.95;5.35;;;5.40;99.90;;;;;;5076497;28;20027;-79
2020/12/16 04:53:27;;;;;;;6.35;5.43;;;5.40;99.90;;;;;;5076545;28;20026;-79
2020/12/16 04:55:57;;;;;;;6.90;4.85;;;5.40;99.90;;;;;;5094542;28;20070;-79
2020/12/16 04:58:22;;;;;;;5.53;4.70;;;5.40;99.90;;;;;;5094988;28;20028;-79
2020/12/16 05:00:48;;;;;;;7.03;5.45;;;5.40;99.90;;;;;;5076310;28;20034;-79
2020/12/16 05:03:14;;;;;;;6.85;5.43;;;5.40;99.90;;;;;;5094757;28;20057;-79
2020/12/16 05:05:39;;;;;;;6.45;5.43;;;5.40;99.90;;;;;;5094431;28;20020;-79
2020/12/16 05:08:16;;;;;;;10.40;6.32;;;5.30;99.90;;;;;;5076170;28;20073;-78
2020/12/16 05:10:48;;;;;;;10.50;7.93;;;5.20;99.90;;;;;;5094368;28;20477;-78
2020/12/16 05:13:17;;;;;;;9.80;7.50;;;5.30;99.90;;;;;;5094626;28;20451;-79
2020/12/16 05:15:45;;;;;;;10.95;5.70;;;5.20;99.90;;;;;;5094202;28;20048;-79
2020/12/16 05:18:21;;;;;;;6.43;5.18;;;5.20;99.90;;;;;;5094045;28;20051;-79
2020/12/16 05:20:56;;;;;;;6.55;5.13;;;5.20;99.90;;;;;;5076031;28;20024;-79
2020/12/16 05:23:35;;;;;;;5.45;4.53;;;5.30;99.90;;;;;;5093733;28;20056;-79
2020/12/16 05:26:05;;;;;;;8.50;4.82;;;5.30;99.90;;;;;;5094301;28;20353;-79
2020/12/16 05:28:39;;;;;;;6.13;4.13;;;5.30;99.90;;;;;;5075896;28;20016;-79
2020/12/16 05:31:13;;;;;;;6.70;4.70;;;5.30;99.90;;;;;;5094060;28;20025;-79
2020/12/16 05:33:42;;;;;;;6.82;5.10;;;5.30;99.90;;;;;;5094282;28;20023;-79
2020/12/16 05:36:09;;;;;;;5.75;4.55;;;5.30;99.90;;;;;;5075846;28;20028;-79
2020/12/16 05:38:53;;;;;;;9.85;5.35;;;5.30;99.90;;;;;;5093944;28;20036;-79
2020/12/16 05:41:33;;;;;;;7.22;4.47;;;5.30;99.90;;;;;;5094120;28;20031;-79
2020/12/16 05:44:31;;;;;;;6.22;4.78;;;5.40;99.90;;;;;;5075635;28;20072;-79
2020/12/16 05:46:57;;;;;;;6.32;5.00;;;5.40;99.90;;;;;;5038507;28;20552;-79
2020/12/16 05:49:24;;;;;;;5.95;5.10;;;5.50;99.90;;;;;;5093976;28;20020;-79
2020/12/16 05:51:57;;;;;;;6.80;5.65;;;5.50;99.90;;;;;;5075591;28;20024;-80
2020/12/16 05:54:23;;;;;;;5.80;4.72;;;5.50;99.90;;;;;;5075588;28;20387;-79
2020/12/16 05:57:09;;;;;;;6.97;4.95;;;5.50;99.90;;;;;;5093629;28;20020;-79
2020/12/16 05:59:34;;;;;;;4.95;4.45;;;5.50;99.90;;;;;;5075538;28;20111;-80
2020/12/16 06:02:04;;;;;;;7.13;5.45;;;5.50;99.90;;;;;;5094199;28;20051;-79
2020/12/16 06:04:35;;;;;;;7.80;5.30;;;5.30;99.90;;;;;;5094437;28;20016;-79
2020/12/16 06:07:02;;;;;;;6.07;4.50;;;5.30;99.90;;;;;;5093527;28;20028;-79
2020/12/16 06:09:31;;;;;;;6.38;5.03;;;5.30;99.90;;;;;;5075664;28;20053;-79
2020/12/16 06:12:04;;;;;;;6.47;5.32;;;5.40;99.90;;;;;;5075368;28;20026;-79
2020/12/16 06:14:33;;;;;;;5.20;4.35;;;5.40;99.90;;;;;;5075463;28;20532;-78
2020/12/16 06:17:09;;;;;;;5.28;4.78;;;5.40;99.90;;;;;;5093517;28;20126;-80
2020/12/16 06:19:35;;;;;;;175.27;73.97;;;5.30;99.90;;;;;;5093705;28;20028;-79
2020/12/16 06:22:07;;;;;;;26.50;12.55;;;5.30;99.90;;;;;;5093394;28;20117;-80
2020/12/16 06:24:42;;;;;;;7.97;5.45;;;5.20;99.90;;;;;;5093619;28;20024;-79
2020/12/16 06:27:09;;;;;;;10.57;6.47;;;5.20;99.90;;;;;;5093675;28;20435;-79
2020/12/16 06:29:38;;;;;;;8.57;5.97;;;5.30;99.90;;;;;;5075269;28;20540;-79
2020/12/16 06:32:10;;;;;;;8.35;6.53;;;5.20;99.90;;;;;;5093919;28;20451;-80
2020/12/16 06:34:37;;;;;;;8.57;5.93;;;5.10;99.90;;;;;;5093340;28;20024;-79
2020/12/16 06:37:03;;;;;;;7.57;6.13;;;5.20;99.90;;;;;;5096871;28;20379;-79
2020/12/16 06:39:29;;;;;;;8.70;6.13;;;5.20;99.90;;;;;;5079063;28;20028;-79
2020/12/16 06:41:59;;;;;;;9.35;6.45;;;5.20;99.90;;;;;;5079156;28;20027;-80
2020/12/16 06:44:26;;;;;;;9.77;6.78;;;5.10;99.90;;;;;;5079098;28;20070;-79
2020/12/16 06:46:53;;;;;;;9.32;6.45;;;5.10;99.90;;;;;;5097036;28;20363;-79
2020/12/16 06:49:22;;;;;;;8.07;6.35;;;5.10;99.90;;;;;;5078830;28;20016;-80
2020/12/16 06:51:48;;;;;;;9.07;6.75;;;5.20;99.90;;;;;;5078836;28;20031;-79
2020/12/16 06:54:16;;;;;;;12.98;8.00;;;5.20;99.90;;;;;;5097018;28;20035;-79
2020/12/16 06:56:44;;;;;;;8.40;6.30;;;5.20;99.90;;;;;;5097230;28;20075;-79
2020/12/16 06:59:14;;;;;;;7.28;5.72;;;5.10;99.90;;;;;;5096971;28;20020;-79
2020/12/16 07:01:40;;;;;;;6.93;5.60;;;5.30;99.90;;;;;;5078902;28;20028;-79
2020/12/16 07:04:12;;;;;;;7.22;5.75;;;5.40;99.90;;;;;;5078647;28;20024;-80
2020/12/16 07:06:40;;;;;;;5.93;5.10;;;5.40;99.90;;;;;;5096698;28;20048;-79
2020/12/16 07:09:15;;;;;;;9.75;5.68;;;5.50;99.90;;;;;;5078509;28;20028;-79
2020/12/16 07:11:46;;;;;;;9.02;5.38;;;5.50;99.90;;;;;;5078663;28;20028;-80
2020/12/16 07:14:15;;;;;;;6.00;5.03;;;5.40;99.90;;;;;;5096916;28;20032;-80
2020/12/16 07:16:42;;;;;;;6.32;5.28;;;5.30;99.90;;;;;;5096366;28;20114;-79
2020/12/16 07:19:08;;;;;;;6.53;5.43;;;5.20;99.90;;;;;;5096347;28;20058;-80
2020/12/16 07:21:36;;;;;;;9.25;5.90;;;5.10;99.90;;;;;;5078319;28;20051;-80
2020/12/16 07:24:13;;;;;;;6.07;5.18;;;5.30;99.90;;;;;;5096405;28;20027;-79
2020/12/16 07:26:48;;;;;;;7.10;4.57;;;5.40;99.90;;;;;;5078130;28;20024;-79
2020/12/16 07:29:25;;;;;;;5.80;4.70;;;5.40;99.90;;;;;;5078194;28;20058;-79
2020/12/16 07:32:06;;;;;;;7.80;6.13;;;5.40;99.90;;;;;;5096326;28;20024;-79
2020/12/16 07:34:57;;;;;;;8.50;6.00;;;5.30;99.90;;;;;;5096233;28;20020;-79
2020/12/16 07:37:28;;;;;;;11.60;5.80;;;5.40;99.90;;;;;;5096460;28;20020;-79
2020/12/16 07:40:10;;;;;;;8.50;5.75;;;5.50;99.90;;;;;;5096438;28;20024;-80
2020/12/16 07:42:37;;;;;;;9.10;6.32;;;5.50;99.90;;;;;;5078012;28;20020;-79
2020/12/16 07:45:14;;;;;;;8.02;5.20;;;5.40;99.90;;;;;;5095947;28;20460;-80
2020/12/16 07:47:42;;;;;;;8.75;5.10;;;5.30;99.90;;;;;;5095605;28;20024;-79
2020/12/16 07:50:13;;;;;;;9.50;6.05;;;5.30;99.90;;;;;;5096438;28;20027;-79
2020/12/16 07:52:38;;;;;;;7.93;5.18;;;5.40;99.90;;;;;;5095855;28;20371;-79
2020/12/16 07:55:04;;;;;;;5.93;4.82;;;5.50;99.90;;;;;;5095806;28;20035;-79
2020/12/16 07:57:32;;;;;;;5.82;4.95;;;5.50;99.90;;;;;;5077618;28;20028;-79
2020/12/16 07:59:57;;;;;;;8.20;5.20;;;5.50;99.90;;;;;;5095722;28;20431;-79
2020/12/16 08:02:24;;;;;;;9.07;5.80;;;5.50;99.90;;;;;;5095635;28;20051;-79
2020/12/16 08:05:02;;;;;;;7.85;5.90;;;5.50;99.90;;;;;;5095566;28;20024;-79
2020/12/16 08:07:28;;;;;;;6.88;5.60;;;5.40;99.90;;;;;;5095867;28;20020;-79
2020/12/16 08:09:56;;;;;;;7.28;5.07;;;5.40;99.90;;;;;;5077433;28;20035;-79
2020/12/16 08:12:22;;;;;;;9.18;6.55;;;5.40;99.90;;;;;;5095758;28;20532;-80
2020/12/16 08:14:49;;;;;;;7.30;5.25;;;5.50;99.90;;;;;;5077273;28;20435;-79
2020/12/16 08:17:15;;;;;;;5.60;4.53;;;5.70;99.90;;;;;;5095131;28;20027;-79
2020/12/16 08:19:41;;;;;;;8.98;6.00;;;5.80;99.90;;;;;;5095244;28;20044;-80
2020/12/16 08:22:16;;;;;;;7.68;6.20;;;5.90;99.90;;;;;;5077124;28;20051;-79
2020/12/16 08:24:57;;;;;;;11.38;7.45;;;6.10;99.90;;;;;;5095171;28;20032;-79
2020/12/16 08:27:23;;;;;;;12.35;7.07;;;6.30;99.90;;;;;;5095433;28;20024;-79
2020/12/16 08:29:51;;;;;;;19.60;8.60;;;6.40;99.90;;;;;;5095142;28;20100;-80
2020/12/16 08:32:24;;;;;;;11.95;7.65;;;6.50;99.90;;;;;;5076909;28;20046;-79
2020/12/16 08:34:52;;;;;;;12.18;7.72;;;6.50;99.90;;;;;;5076952;28;20494;-79
2020/12/16 08:37:19;;;;;;;11.85;7.07;;;6.50;99.90;;;;;;5095571;28;20082;-79
2020/12/16 08:39:47;;;;;;;8.35;6.13;;;6.30;99.90;;;;;;5095206;28;20069;-80
2020/12/16 08:42:23;;;;;;;7.47;5.57;;;6.30;99.90;;;;;;5076696;28;20052;-80
2020/12/16 08:44:49;;;;;;;10.15;5.20;;;6.50;99.90;;;;;;5094900;28;20493;-80
2020/12/16 08:47:25;;;;;;;9.75;6.45;;;6.70;99.90;;;;;;5094746;28;20047;-80
2020/12/16 08:49:52;;;;;;;11.25;7.10;;;6.70;99.90;;;;;;5094749;28;20024;-80
2020/12/16 08:52:18;;;;;;;10.20;7.05;;;7.00;99.90;;;;;;5076588;28;20051;-80
2020/12/16 08:54:44;;;;;;;11.40;5.65;;;7.20;99.90;;;;;;5094665;28;20028;-80
2020/12/16 08:57:11;;;;;;;6.97;5.07;;;7.50;99.90;;;;;;5094872;28;20050;-80
2020/12/16 08:59:37;;;;;;;9.00;5.85;;;8.00;99.90;;;;;;5093878;28;20477;-80
2020/12/16 09:02:03;;;;;;;8.85;6.03;;;8.10;99.90;;;;;;5076383;28;20088;-80
2020/12/16 09:04:37;;;;;;;17.98;6.63;;;8.30;99.90;;;;;;5094438;28;20024;-80
2020/12/16 09:07:14;;;;;;;10.15;5.75;;;8.20;99.90;;;;;;5094650;28;20062;-80
2020/12/16 09:09:52;;;;;;;8.43;5.28;;;8.20;99.90;;;;;;5094396;28;20034;-80
2020/12/16 09:12:20;;;;;;;11.05;6.82;;;8.30;99.90;;;;;;5094696;28;20085;-80
2020/12/16 09:14:54;;;;;;;11.82;7.05;;;7.90;99.90;;;;;;5094334;28;20032;-80
2020/12/16 09:17:23;;;;;;;13.05;6.32;;;7.60;99.90;;;;;;5094211;28;20028;-80
2020/12/16 09:19:49;;;;;;;7.47;5.25;;;7.50;99.90;;;;;;5094191;28;20114;-80
2020/12/16 09:22:15;;;;;;;8.15;5.07;;;7.80;99.90;;;;;;5094121;28;20023;-81
2020/12/16 09:24:41;;;;;;;16.30;6.55;;;8.20;99.90;;;;;;5075945;28;20024;-80
2020/12/16 09:27:08;;;;;;;14.07;5.53;;;8.60;99.90;;;;;;5075791;28;20085;-80
2020/12/16 09:29:41;;;;;;;10.50;6.63;;;8.70;99.90;;;;;;5094057;28;20024;-80
2020/12/16 09:32:07;;;;;;;14.27;7.28;;;8.90;99.90;;;;;;5094046;28;20016;-79
2020/12/16 09:34:38;;;;;;;12.15;6.35;;;9.00;99.90;;;;;;5093998;28;20102;-78
2020/12/16 09:37:33;;;;;;;10.25;5.93;;;9.30;99.90;;;;;;5093943;28;20474;-79
2020/12/16 09:40:15;;;;;;;12.35;6.75;;;9.40;99.90;;;;;;5093959;28;20030;-79
2020/12/16 09:42:55;;;;;;;13.50;6.65;;;9.50;99.90;;;;;;5075796;28;20024;-79
2020/12/16 09:45:22;;;;;;;8.57;5.20;;;9.70;99.90;;;;;;5075696;28;20547;-79
2020/12/16 09:47:50;;;;;;;10.23;5.07;;;10.00;99.90;;;;;;5075638;28;20032;-79
2020/12/16 09:50:23;;;;;;;8.63;4.60;;;9.90;99.90;;;;;;5093671;28;20023;-79
2020/12/16 09:52:56;;;;;;;8.10;4.88;;;10.00;99.90;;;;;;5094825;28;20035;-79
2020/12/16 09:55:22;;;;;;;7.70;4.72;;;10.10;99.90;;;;;;5093792;28;20032;-79
2020/12/16 09:58:05;;;;;;;10.40;4.80;;;10.30;99.90;;;;;;5075541;28;20533;-79
2020/12/16 10:00:33;;;;;;;10.45;5.50;;;10.40;99.90;;;;;;5093995;28;20020;-79
2020/12/16 10:03:04;;;;;;;8.95;4.82;;;10.50;99.90;;;;;;5075515;28;20019;-79
2020/12/16 10:05:32;;;;;;;7.60;4.80;;;10.50;99.90;;;;;;5093634;28;20028;-79
2020/12/16 10:07:58;;;;;;;7.05;3.90;;;10.70;99.90;;;;;;5075407;28;20394;-77
2020/12/16 10:10:27;;;;;;;7.13;3.75;;;10.70;99.90;;;;;;5077630;28;20016;-75
2020/12/16 10:12:53;;;;;;;7.03;3.88;;;10.80;99.90;;;;;;5098029;28;20125;-75
2020/12/16 10:15:19;;;;;;;8.90;4.38;;;10.90;99.90;;;;;;5079475;28;20048;-76
2020/12/16 10:17:44;;;;;;;8.85;3.92;;;11.00;99.90;;;;;;5097417;28;20044;-76
2020/12/16 10:20:11;;;;;;;8.20;3.42;;;10.90;99.90;;;;;;5097930;28;20020;-76
2020/12/16 10:22:37;;;;;;;5.47;2.90;;;10.90;99.90;;;;;;5097644;28;20379;-76
2020/12/16 10:25:05;;;;;;;6.70;3.05;;;10.60;99.90;;;;;;5079333;28;20095;-76
2020/12/16 10:27:32;;;;;;;5.68;3.17;;;10.30;99.90;;;;;;5097448;28;20111;-76
2020/12/16 10:30:03;;;;;;;7.28;3.40;;;10.20;99.90;;;;;;5098031;28;20027;-75
2020/12/16 10:32:29;;;;;;;4.28;3.00;;;10.20;99.90;;;;;;5097403;28;20027;-75
2020/12/16 10:34:55;;;;;;;4.95;3.55;;;9.90;99.90;;;;;;5079140;28;20401;-76
2020/12/16 10:37:22;;;;;;;9.98;3.17;;;9.90;99.90;;;;;;5097619;28;20035;-76
2020/12/16 10:39:48;;;;;;;7.10;3.15;;;10.00;99.90;;;;;;5079434;28;20031;-76
2020/12/16 10:42:14;;;;;;;6.22;2.85;;;10.10;99.90;;;;;;5079042;28;20020;-77
2020/12/16 10:44:40;;;;;;;5.22;2.88;;;10.20;99.90;;;;;;5078966;28;20490;-77
2020/12/16 10:47:07;;;;;;;4.85;2.50;;;10.10;99.90;;;;;;5097083;28;20058;-77
2020/12/16 10:49:33;;;;;;;4.05;2.70;;;10.40;99.90;;;;;;5078908;28;20025;-78
2020/12/16 10:52:10;;;;;;;3.42;2.60;;;10.60;99.90;;;;;;5097050;28;20020;-76
2020/12/16 10:54:38;;;;;;;5.97;3.30;;;10.80;99.90;;;;;;5078849;28;20433;-77
2020/12/16 10:57:04;;;;;;;5.63;3.00;;;10.70;99.90;;;;;;5078734;28;20024;-76
2020/12/16 10:59:30;;;;;;;6.90;3.00;;;10.90;99.90;;;;;;5078698;28;20028;-77
2020/12/16 11:01:57;;;;;;;4.68;2.60;;;11.30;99.90;;;;;;5096824;28;20032;-78
2020/12/16 11:04:23;;;;;;;4.47;2.63;;;11.30;99.90;;;;;;5097103;28;20463;-77
2020/12/16 11:06:50;;;;;;;4.63;2.78;;;11.30;99.90;;;;;;5096683;28;20020;-76
2020/12/16 11:09:17;;;;;;;4.47;2.78;;;11.10;99.90;;;;;;5096968;28;20070;-76
2020/12/16 11:11:50;;;;;;;4.10;3.17;;;11.20;99.90;;;;;;5078459;28;20024;-76
2020/12/16 11:14:16;;;;;;;5.43;2.78;;;11.30;99.90;;;;;;5078438;28;20024;-76
2020/12/16 11:16:42;;;;;;;5.47;2.88;;;11.30;99.90;;;;;;5078340;28;20028;-76
2020/12/16 11:19:13;;;;;;;3.83;2.70;;;11.30;99.90;;;;;;5078209;28;20044;-78
2020/12/16 11:21:44;;;;;;;3.90;2.80;;;11.70;99.90;;;;;;5096387;28;20068;-77
2020/12/16 11:24:11;;;;;;;4.38;2.80;;;12.10;99.90;;;;;;5096396;28;20020;-76
2020/12/16 11:26:42;;;;;;;5.32;2.60;;;12.00;99.90;;;;;;5078083;28;20028;-77
2020/12/16 11:29:08;;;;;;;3.58;2.47;;;12.20;99.90;;;;;;5078092;28;20028;-77
2020/12/16 11:31:42;;;;;;;3.10;2.40;;;12.20;99.90;;;;;;5078096;28;20070;-76
2020/12/16 11:34:08;;;;;;;2.97;2.35;;;12.50;99.90;;;;;;5096573;28;20536;-77
2020/12/16 11:36:35;;;;;;;4.35;2.72;;;12.20;99.90;;;;;;5077976;28;20024;-77
2020/12/16 11:39:01;;;;;;;4.65;2.60;;;12.20;99.90;;;;;;5096101;28;20024;-77
2020/12/16 11:41:27;;;;;;;6.03;3.58;;;12.50;99.90;;;;;;5095987;28;20031;-76
2020/12/16 11:43:52;;;;;;;6.60;3.28;;;12.80;99.90;;;;;;5096063;28;20027;-77
2020/12/16 11:46:18;;;;;;;6.32;2.80;;;13.00;99.90;;;;;;5095909;28;20028;-77
2020/12/16 11:48:44;;;;;;;7.00;3.08;;;13.60;99.90;;;;;;5095959;28;20424;-77
2020/12/16 11:51:11;;;;;;;6.18;3.30;;;13.80;99.90;;;;;;5077823;28;20043;-76
2020/12/16 11:53:36;;;;;;;6.70;3.20;;;13.30;99.90;;;;;;5096170;28;20015;-77
2020/12/16 11:56:02;;;;;;;4.22;2.60;;;13.40;99.90;;;;;;5096094;28;20099;-77
2020/12/16 11:58:29;;;;;;;6.88;3.38;;;13.70;99.90;;;;;;5095776;28;20474;-77
2020/12/16 12:00:55;;;;;;;5.85;3.38;;;13.50;99.90;;;;;;5077480;28;20021;-77
2020/12/16 12:03:20;;;;;;;5.05;3.42;;;13.60;99.90;;;;;;5096206;28;20459;-76
2020/12/16 12:05:46;;;;;;;4.40;3.40;;;13.70;99.90;;;;;;5095888;28;20027;-78
2020/12/16 12:08:12;;;;;;;7.22;3.20;;;14.10;99.90;;;;;;5077253;28;20479;-77
2020/12/16 12:10:37;;;;;;;5.97;3.70;;;14.80;99.90;;;;;;5095519;28;20024;-77
2020/12/16 12:13:03;;;;;;;4.20;2.95;;;15.00;99.90;;;;;;5095700;28;20024;-76
2020/12/16 12:15:30;;;;;;;5.47;3.70;;;15.20;99.90;;;;;;5095336;28;20032;-76
2020/12/16 12:17:56;;;;;;;7.03;3.28;;;15.20;99.90;;;;;;5077059;28;20094;-76
2020/12/16 12:20:21;;;;;;;4.07;3.00;;;15.40;99.90;;;;;;5077174;28;20032;-77
2020/12/16 12:22:47;;;;;;;7.65;3.65;;;15.70;99.90;;;;;;5095819;28;20463;-77
2020/12/16 12:25:13;;;;;;;4.93;3.38;;;15.40;99.90;;;;;;5095159;28;20032;-77
2020/12/16 12:27:39;;;;;;;3.47;2.67;;;16.10;99.90;;;;;;5076894;28;20024;-77
2020/12/16 12:30:04;;;;;;;4.63;3.00;;;16.10;99.90;;;;;;5095144;28;20016;-77
2020/12/16 12:32:30;;;;;;;6.32;3.60;;;15.40;99.90;;;;;;5076550;28;20020;-77
2020/12/16 12:34:56;;;;;;;4.85;3.50;;;16.20;99.90;;;;;;5076274;28;20031;-77
2020/12/16 12:37:22;;;;;;;6.78;3.20;;;15.80;99.90;;;;;;5094947;28;20032;-77
2020/12/16 12:39:48;;;;;;;7.55;3.05;;;15.40;99.90;;;;;;5094924;28;20031;-77
2020/12/16 12:42:14;;;;;;;5.20;3.45;;;15.30;99.90;;;;;;5094867;28;20038;-77
2020/12/16 12:44:39;;;;;;;6.72;3.30;;;15.40;99.90;;;;;;5076561;28;20479;-77
2020/12/16 12:47:05;;;;;;;6.03;3.30;;;16.20;99.90;;;;;;5076558;28;20024;-77
2020/12/16 12:49:31;;;;;;;6.57;2.90;;;16.80;99.90;;;;;;5076563;28;20027;-77
2020/12/16 12:51:56;;;;;;;33.75;19.00;;;17.30;99.90;;;;;;5094655;28;20030;-77
2020/12/16 12:54:22;;;;;;;11.60;6.00;;;17.70;99.90;;;;;;5076509;28;20028;-77
2020/12/16 12:56:48;;;;;;;4.63;3.17;;;18.70;99.90;;;;;;5094558;28;20427;-77